Time;durP1;ratioP1;P1;durP2;ratioP2;P2;SDS_P1;SDS_P2;PMS_P1;PMS_P2;Temp;Humidity;BMP_temperature;BMP_pressure;BME280_temperature;BME280_humidity;BME280_pressure;Samples;Min_cycle;Max_cycle;Signal;HPM_P1;HPM_P2
2024/02/23 00:01:53;;;;;;;10.73;9.43;;;23.10;42.30;;;;;;5061659;28;20032;-42
2024/02/23 00:04:19;;;;;;;9.95;9.05;;;23.10;42.30;;;;;;5063591;28;20499;-43
2024/02/23 00:06:45;;;;;;;11.82;9.75;;;23.10;42.40;;;;;;5060614;28;20041;-42
2024/02/23 00:09:11;;;;;;;10.97;9.57;;;23.10;42.40;;;;;;5052377;28;20032;-43
2024/02/23 00:11:44;;;;;;;11.18;10.02;;;23.10;42.40;;;;;;5056285;28;20557;-42
2024/02/23 00:14:11;;;;;;;11.48;9.70;;;23.10;42.30;;;;;;5053425;28;20041;-40
2024/02/23 00:16:38;;;;;;;;;;;23.00;42.30;;;;;;5055529;28;20025;-42
2024/02/23 00:19:04;;;;;;;11.65;9.93;;;23.10;42.40;;;;;;5044778;28;19924;-42
2024/02/23 00:21:30;;;;;;;10.35;9.38;;;23.10;42.40;;;;;;5057668;28;20029;-42
2024/02/23 00:23:56;;;;;;;10.68;9.68;;;23.10;42.50;;;;;;5054158;28;20025;-42
2024/02/23 00:26:22;;;;;;;11.90;9.75;;;23.10;42.50;;;;;;5062503;28;20056;-42
2024/02/23 00:28:48;;;;;;;11.13;10.02;;;23.10;42.50;;;;;;5060533;28;20076;-42
2024/02/23 00:31:14;;;;;;;12.00;9.75;;;23.10;42.50;;;;;;5062367;28;20598;-44
2024/02/23 00:33:42;;;;;;;11.77;10.57;;;23.10;42.50;;;;;;5060345;28;20082;-43
2024/02/23 00:36:08;;;;;;;10.30;9.25;;;23.10;42.50;;;;;;5038832;28;20029;-41
2024/02/23 00:38:34;;;;;;;11.55;10.45;;;23.10;42.40;;;;;;5059036;28;20041;-42
2024/02/23 00:41:00;;;;;;;12.43;11.07;;;23.00;42.40;;;;;;5060663;28;20056;-43
2024/02/23 00:43:29;;;;;;;10.93;9.82;;;23.00;42.40;;;;;;5060069;28;20088;-41
2024/02/23 00:45:55;;;;;;;10.55;9.32;;;23.00;42.30;;;;;;5057985;28;20040;-42
2024/02/23 00:48:21;;;;;;;11.10;9.60;;;23.00;42.40;;;;;;5052036;28;20044;-42
2024/02/23 00:50:47;;;;;;;10.98;9.60;;;23.10;42.50;;;;;;5061331;28;20033;-42
2024/02/23 00:53:13;;;;;;;10.45;9.45;;;23.10;42.50;;;;;;5036584;28;20021;-40
2024/02/23 00:55:39;;;;;;;11.50;10.30;;;23.10;42.50;;;;;;5060563;28;20173;-42
2024/02/23 00:58:06;;;;;;;12.77;10.60;;;23.10;42.50;;;;;;5060541;28;20037;-43
2024/02/23 01:00:33;;;;;;;10.75;9.65;;;23.00;42.50;;;;;;5061583;28;20088;-45
2024/02/23 01:03:00;;;;;;;10.55;9.55;;;23.00;42.50;;;;;;5040819;28;20444;-42
2024/02/23 01:05:26;;;;;;;12.15;10.90;;;23.00;42.40;;;;;;5064010;28;20029;-43
2024/02/23 01:07:52;;;;;;;12.07;10.77;;;23.00;42.50;;;;;;5079670;28;20100;-43
2024/02/23 01:10:18;;;;;;;14.75;11.27;;;23.00;42.40;;;;;;5081500;28;20144;-43
2024/02/23 01:12:44;;;;;;;11.43;10.32;;;23.00;42.50;;;;;;5077490;28;20803;-42
2024/02/23 01:15:10;;;;;;;11.68;10.52;;;23.00;42.70;;;;;;5076583;28;20048;-42
2024/02/23 01:17:38;;;;;;;11.77;10.55;;;23.10;42.70;;;;;;5051804;28;20028;-41
2024/02/23 01:20:04;;;;;;;11.57;10.38;;;23.10;42.80;;;;;;5081537;28;20067;-42
2024/02/23 01:22:31;;;;;;;11.50;10.38;;;23.00;42.70;;;;;;5080894;28;20029;-42
2024/02/23 01:24:57;;;;;;;12.43;10.45;;;23.00;42.70;;;;;;5071579;28;20128;-42
2024/02/23 01:27:23;;;;;;;11.93;10.73;;;23.00;43.20;;;;;;5077043;28;20040;-41
2024/02/23 01:29:49;;;;;;;12.20;10.75;;;23.00;42.70;;;;;;5080213;28;20029;-42
2024/02/23 01:32:15;;;;;;;11.32;10.23;;;23.00;42.60;;;;;;5077660;28;20035;-42
2024/02/23 01:34:41;;;;;;;12.45;11.25;;;23.00;42.60;;;;;;5074598;28;20116;-44
2024/02/23 01:37:08;;;;;;;12.63;11.32;;;23.00;42.60;;;;;;5080981;28;20033;-43
2024/02/23 01:39:34;;;;;;;13.27;11.13;;;23.00;42.70;;;;;;5080625;28;20033;-42
2024/02/23 01:42:00;;;;;;;11.85;10.65;;;23.00;42.80;;;;;;5080647;28;20051;-43
2024/02/23 01:44:26;;;;;;;11.88;10.68;;;23.00;42.90;;;;;;5075951;28;20056;-44
2024/02/23 01:46:52;;;;;;;12.45;10.98;;;23.00;42.90;;;;;;5071469;28;20054;-43
2024/02/23 01:49:18;;;;;;;13.55;10.55;;;23.00;42.90;;;;;;5080381;28;20083;-43
2024/02/23 01:51:44;;;;;;;11.77;10.50;;;23.10;43.10;;;;;;5060170;28;20037;-44
2024/02/23 01:54:10;;;;;;;11.40;10.30;;;23.10;43.10;;;;;;5056796;28;20031;-43
2024/02/23 01:56:39;;;;;;;12.15;10.43;;;23.10;43.10;;;;;;5080417;28;20037;-42
2024/02/23 01:59:05;;;;;;;14.35;11.50;;;23.10;43.10;;;;;;5080952;28;20079;-42
2024/02/23 02:01:31;;;;;;;17.67;12.13;;;23.00;43.10;;;;;;5062568;28;20040;-42
2024/02/23 02:03:58;;;;;;;20.17;11.48;;;23.10;43.50;;;;;;5061029;28;20285;-42
2024/02/23 02:06:25;;;;;;;18.02;11.50;;;23.10;43.70;;;;;;5067521;28;20713;-42
2024/02/23 02:08:51;;;;;;;18.63;11.80;;;23.10;44.00;;;;;;5057503;28;20021;-45
2024/02/23 02:11:17;;;;;;;16.80;11.93;;;23.10;44.40;;;;;;5057184;28;20274;-42
2024/02/23 02:13:43;;;;;;;18.02;11.55;;;23.10;44.70;;;;;;5054651;28;20487;-43
2024/02/23 02:16:11;;;;;;;17.75;11.38;;;23.10;45.00;;;;;;5056684;28;20033;-42
2024/02/23 02:18:36;;;;;;;;;;;23.10;45.20;;;;;;5049025;28;20046;-45
2024/02/23 02:21:03;;;;;;;17.00;12.02;;;23.10;45.30;;;;;;5062018;28;19943;-42
2024/02/23 02:23:29;;;;;;;20.47;11.93;;;23.10;45.40;;;;;;5060007;28;20038;-42
2024/02/23 02:25:58;;;;;;;16.08;11.93;;;23.10;45.30;;;;;;5053871;28;20481;-43
2024/02/23 02:28:25;;;;;;;14.20;11.65;;;23.00;45.50;;;;;;5061124;28;20041;-41
2024/02/23 02:30:54;;;;;;;14.55;11.15;;;23.10;45.50;;;;;;5058800;28;20025;-40
2024/02/23 02:33:21;;;;;;;13.88;11.45;;;23.10;45.40;;;;;;5060052;28;20434;-41
2024/02/23 02:35:47;;;;;;;14.35;11.88;;;23.10;45.40;;;;;;5058649;28;20078;-43
2024/02/23 02:38:13;;;;;;;12.33;11.07;;;23.10;45.30;;;;;;5055914;28;20609;-47
2024/02/23 02:40:39;;;;;;;14.32;12.07;;;23.00;45.20;;;;;;5059109;28;20041;-43
2024/02/23 02:43:06;;;;;;;15.07;11.75;;;23.10;45.10;;;;;;5061518;28;20096;-43
2024/02/23 02:45:32;;;;;;;12.32;11.02;;;23.00;45.00;;;;;;5042555;28;20028;-43
2024/02/23 02:48:00;;;;;;;13.48;11.52;;;23.00;44.90;;;;;;5061129;28;20029;-42
2024/02/23 02:50:26;;;;;;;12.45;11.15;;;23.00;44.80;;;;;;5058020;28;20104;-41
2024/02/23 02:52:52;;;;;;;13.02;11.38;;;23.00;44.80;;;;;;5055378;28;20032;-43
2024/02/23 02:55:18;;;;;;;13.60;12.15;;;23.00;44.70;;;;;;5056376;28;20433;-42
2024/02/23 02:57:45;;;;;;;13.20;11.80;;;23.00;44.70;;;;;;5043532;28;20041;-43
2024/02/23 03:00:11;;;;;;;12.52;10.13;;;23.00;44.80;;;;;;5064838;28;20029;-42
2024/02/23 03:02:38;;;;;;;8.27;7.40;;;23.00;44.90;;;;;;5064597;28;20060;-43
2024/02/23 03:05:04;;;;;;;11.57;10.25;;;23.00;45.00;;;;;;5064268;28;20033;-43
2024/02/23 03:07:30;;;;;;;11.38;10.20;;;23.00;45.00;;;;;;5083948;28;20048;-42
2024/02/23 03:09:57;;;;;;;12.27;10.98;;;23.00;45.00;;;;;;5084248;28;20024;-40
2024/02/23 03:12:23;;;;;;;11.90;10.70;;;23.00;44.90;;;;;;5084507;28;20481;-43
2024/02/23 03:14:49;;;;;;;13.40;10.27;;;23.00;44.90;;;;;;5084384;28;20033;-42
2024/02/23 03:17:15;;;;;;;10.75;9.65;;;23.00;44.90;;;;;;5065365;28;20028;-42
2024/02/23 03:19:42;;;;;;;11.50;10.20;;;23.00;44.80;;;;;;5077491;28;20080;-42
2024/02/23 03:22:08;;;;;;;10.88;9.75;;;22.90;44.70;;;;;;5084464;28;20034;-42
2024/02/23 03:24:34;;;;;;;10.43;9.43;;;23.00;44.90;;;;;;5083686;28;20509;-42
2024/02/23 03:27:00;;;;;;;10.82;9.73;;;23.00;45.00;;;;;;5083866;28;20029;-42
2024/02/23 03:29:29;;;;;;;9.80;8.80;;;23.00;45.00;;;;;;5083402;28;20021;-42
2024/02/23 03:31:56;;;;;;;10.73;9.63;;;23.00;45.00;;;;;;5080825;28;20029;-42
2024/02/23 03:34:22;;;;;;;11.30;9.85;;;23.00;45.00;;;;;;5083939;28;20032;-43
2024/02/23 03:36:48;;;;;;;10.60;9.50;;;23.00;45.00;;;;;;5083294;28;21201;-40
2024/02/23 03:39:14;;;;;;;10.13;9.02;;;23.00;44.90;;;;;;5084259;28;20029;-42
2024/02/23 03:41:40;;;;;;;9.93;8.57;;;23.00;44.80;;;;;;5081037;28;20404;-42
2024/02/23 03:44:07;;;;;;;11.02;8.95;;;23.00;44.80;;;;;;5084305;28;20076;-44
2024/02/23 03:46:35;;;;;;;9.63;8.18;;;22.90;44.80;;;;;;5078527;28;20029;-42
2024/02/23 03:49:01;;;;;;;9.07;8.00;;;23.00;45.00;;;;;;5077689;28;20037;-42
2024/02/23 03:51:27;;;;;;;9.10;8.10;;;23.00;45.00;;;;;;5083839;28;20036;-41
2024/02/23 03:53:54;;;;;;;8.68;7.80;;;23.00;45.00;;;;;;5082017;28;20088;-42
2024/02/23 03:56:20;;;;;;;8.90;8.00;;;23.00;45.00;;;;;;5076053;28;20499;-47
2024/02/23 03:58:46;;;;;;;8.93;7.47;;;23.00;45.00;;;;;;5083518;28;20131;-43
2024/02/23 04:01:12;;;;;;;8.90;8.00;;;23.00;45.00;;;;;;5083485;28;20111;-42
2024/02/23 04:03:38;;;;;;;8.88;7.97;;;23.00;45.00;;;;;;5082474;28;20033;-41
2024/02/23 04:06:05;;;;;;;8.35;7.57;;;23.00;44.90;;;;;;5078070;28;20053;-42
2024/02/23 04:08:31;;;;;;;7.60;6.80;;;22.90;44.90;;;;;;5075805;28;20028;-42
2024/02/23 04:10:57;;;;;;;7.73;7.00;;;22.90;44.80;;;;;;5082482;28;20027;-43
2024/02/23 04:13:24;;;;;;;7.18;6.47;;;23.00;45.00;;;;;;5078725;28;20112;-42
2024/02/23 04:15:50;;;;;;;6.97;6.28;;;23.00;45.10;;;;;;5077745;28;20051;-41
2024/02/23 04:18:16;;;;;;;6.75;6.15;;;23.00;45.10;;;;;;5079182;28;20094;-42
2024/02/23 04:20:42;;;;;;;7.22;6.53;;;23.00;45.10;;;;;;5081796;28;20035;-43
2024/02/23 04:23:08;;;;;;;7.55;6.57;;;23.00;45.10;;;;;;5077065;28;20035;-42
2024/02/23 04:25:34;;;;;;;7.45;6.53;;;23.00;45.10;;;;;;5079572;28;20122;-42
2024/02/23 04:28:00;;;;;;;7.10;6.40;;;23.00;45.00;;;;;;5083087;28;20035;-42
2024/02/23 04:30:26;;;;;;;6.88;6.20;;;23.00;45.00;;;;;;5082835;28;20048;-42
2024/02/23 04:32:52;;;;;;;7.38;6.68;;;22.90;44.90;;;;;;5082312;28;20028;-43
2024/02/23 04:35:19;;;;;;;7.93;6.20;;;22.90;44.90;;;;;;5079409;28;20032;-42
2024/02/23 04:37:45;;;;;;;6.72;6.13;;;22.90;45.00;;;;;;5074625;28;20068;-42
2024/02/23 04:40:11;;;;;;;6.65;5.57;;;23.00;45.10;;;;;;5071579;28;20021;-42
2024/02/23 04:42:38;;;;;;;6.00;5.40;;;23.00;45.20;;;;;;5080983;28;20123;-40
2024/02/23 04:45:05;;;;;;;6.15;5.55;;;23.00;45.20;;;;;;5080712;28;20043;-42
2024/02/23 04:47:32;;;;;;;5.90;5.40;;;23.00;45.20;;;;;;5079852;28;20039;-40
2024/02/23 04:49:59;;;;;;;6.00;5.40;;;23.00;45.20;;;;;;5081557;28;20050;-41
2024/02/23 04:52:25;;;;;;;5.47;4.97;;;23.00;45.10;;;;;;5081988;28;20045;-42
2024/02/23 04:54:51;;;;;;;5.90;5.30;;;23.00;45.10;;;;;;5082790;28;20048;-43
2024/02/23 04:57:17;;;;;;;6.50;5.50;;;22.90;45.00;;;;;;5082560;28;20039;-41
2024/02/23 04:59:43;;;;;;;5.60;5.10;;;22.90;45.00;;;;;;5082727;28;20390;-42
2024/02/23 05:02:09;;;;;;;5.20;4.70;;;22.90;45.00;;;;;;5082677;28;20020;-42
2024/02/23 05:04:36;;;;;;;6.68;5.03;;;23.00;45.20;;;;;;5081505;28;20020;-42
2024/02/23 05:07:02;;;;;;;4.95;4.45;;;23.00;45.30;;;;;;5081754;28;20095;-42
2024/02/23 05:09:29;;;;;;;5.65;5.05;;;23.00;45.30;;;;;;5082903;28;20035;-42
2024/02/23 05:11:55;;;;;;;5.07;4.57;;;23.00;45.30;;;;;;5082208;28;20081;-42
2024/02/23 05:14:21;;;;;;;5.47;4.97;;;23.00;45.30;;;;;;5078169;28;20040;-42
2024/02/23 05:16:47;;;;;;;5.68;5.18;;;23.00;45.30;;;;;;5074363;28;20093;-41
2024/02/23 05:19:13;;;;;;;4.93;4.53;;;23.00;45.30;;;;;;5077146;28;20040;-40
2024/02/23 05:21:39;;;;;;;4.60;4.10;;;23.00;45.20;;;;;;5079629;28;20045;-42
2024/02/23 05:24:06;;;;;;;5.22;4.72;;;23.00;45.20;;;;;;5077118;28;20035;-41
2024/02/23 05:26:32;;;;;;;5.20;4.70;;;22.90;45.10;;;;;;5076979;28;20478;-42
2024/02/23 05:28:58;;;;;;;5.28;4.78;;;22.90;45.10;;;;;;5081489;28;20921;-41
2024/02/23 05:31:45;;;;;;;4.60;4.20;;;22.90;45.30;;;;;;5078231;28;20079;-43
2024/02/23 05:34:11;;;;;;;4.63;4.22;;;23.00;45.40;;;;;;5079045;28;20030;-42
2024/02/23 05:36:37;;;;;;;4.85;4.45;;;23.00;46.00;;;;;;5056949;28;20051;-41
2024/02/23 05:39:03;;;;;;;4.30;3.90;;;23.00;45.50;;;;;;5064046;28;20040;-43
2024/02/23 05:41:29;;;;;;;4.40;4.00;;;23.00;45.50;;;;;;5076846;28;20035;-42
2024/02/23 05:43:56;;;;;;;4.68;3.92;;;23.00;45.50;;;;;;5067969;28;20489;-42
2024/02/23 05:46:22;;;;;;;4.43;3.88;;;23.00;45.40;;;;;;5074222;28;20037;-43
2024/02/23 05:48:48;;;;;;;4.23;3.90;;;23.00;45.40;;;;;;5072510;28;20052;-42
2024/02/23 05:51:14;;;;;;;4.60;4.20;;;23.00;45.50;;;;;;5076343;28;20051;-42
2024/02/23 05:53:41;;;;;;;4.70;4.30;;;23.00;46.00;;;;;;5079248;28;20064;-42
2024/02/23 05:56:07;;;;;;;4.28;3.95;;;22.90;45.40;;;;;;5062172;28;20028;-44
2024/02/23 05:58:34;;;;;;;4.32;3.92;;;22.90;45.90;;;;;;5080578;28;20616;-42
2024/02/23 06:01:00;;;;;;;4.07;3.67;;;22.90;45.40;;;;;;5080176;28;20025;-41
2024/02/23 06:03:26;;;;;;;4.30;3.90;;;23.00;45.60;;;;;;5074143;28;20055;-42
2024/02/23 06:05:54;;;;;;;4.18;3.78;;;23.00;45.70;;;;;;5075491;28;20073;-44
2024/02/23 06:08:20;;;;;;;4.18;3.78;;;23.00;45.70;;;;;;5061645;28;20037;-42
2024/02/23 06:10:46;;;;;;;3.95;3.55;;;23.00;45.70;;;;;;5060476;28;20025;-41
2024/02/23 06:13:12;;;;;;;4.05;3.50;;;23.00;45.60;;;;;;5061784;28;20032;-42
2024/02/23 06:15:39;;;;;;;3.95;3.53;;;23.00;45.70;;;;;;5051116;28;20024;-40
2024/02/23 06:18:05;;;;;;;4.20;3.83;;;23.00;45.70;;;;;;5059424;28;20040;-42
2024/02/23 06:20:31;;;;;;;3.90;3.50;;;23.00;45.60;;;;;;5058425;28;20055;-43
2024/02/23 06:22:58;;;;;;;3.67;3.17;;;23.00;45.60;;;;;;5058146;28;20055;-42
2024/02/23 06:25:24;;;;;;;6.05;3.75;;;22.90;45.60;;;;;;5061658;28;20059;-44
2024/02/23 06:27:51;;;;;;;3.55;3.25;;;22.90;45.60;;;;;;5060468;28;20032;-43
2024/02/23 06:30:17;;;;;;;;;;;22.90;45.70;;;;;;5055998;28;20029;-42
2024/02/23 06:32:45;;;;;;;4.18;3.17;;;23.00;45.80;;;;;;5060647;28;19912;-43
2024/02/23 06:35:12;;;;;;;3.63;3.28;;;23.00;45.80;;;;;;5063595;28;20040;-42
2024/02/23 06:37:38;;;;;;;4.03;3.70;;;23.00;45.80;;;;;;5064422;28;20059;-43
2024/02/23 06:40:04;;;;;;;3.75;3.35;;;23.00;45.80;;;;;;5065543;28;20037;-42
2024/02/23 06:42:30;;;;;;;3.38;3.00;;;23.00;45.90;;;;;;5055932;28;20092;-42
2024/02/23 06:44:56;;;;;;;3.20;2.90;;;23.00;45.80;;;;;;5052151;28;20034;-42
2024/02/23 06:47:23;;;;;;;4.22;3.55;;;23.00;45.80;;;;;;5049293;28;20069;-42
2024/02/23 06:49:49;;;;;;;3.65;3.33;;;23.00;45.80;;;;;;5052293;28;20034;-42
2024/02/23 06:52:15;;;;;;;3.35;3.05;;;22.90;45.80;;;;;;5049888;28;20029;-42
2024/02/23 06:54:41;;;;;;;3.92;3.53;;;22.90;45.70;;;;;;5050790;28;20379;-43
2024/02/23 06:57:07;;;;;;;3.30;2.92;;;22.90;45.70;;;;;;5052559;28;20048;-42
2024/02/23 06:59:33;;;;;;;3.73;3.13;;;22.90;45.80;;;;;;5050435;28;20294;-42
2024/02/23 07:01:59;;;;;;;3.45;3.15;;;23.00;45.90;;;;;;5052323;28;20029;-43
2024/02/23 07:04:26;;;;;;;3.53;3.20;;;23.00;46.00;;;;;;5052821;28;20033;-42
2024/02/23 07:06:52;;;;;;;3.45;2.95;;;23.00;46.00;;;;;;5062226;28;20040;-41
2024/02/23 07:09:19;;;;;;;3.45;3.15;;;23.00;46.00;;;;;;5073604;28;20036;-41
2024/02/23 07:11:45;;;;;;;3.50;3.20;;;23.00;46.00;;;;;;5070524;28;20043;-42
2024/02/23 07:14:14;;;;;;;3.55;3.25;;;23.00;46.00;;;;;;5071055;28;20290;-43
2024/02/23 07:16:40;;;;;;;3.05;2.75;;;23.00;46.00;;;;;;5067981;28;20044;-42
2024/02/23 07:19:07;;;;;;;3.33;3.03;;;23.00;46.00;;;;;;5068081;28;20124;-42
2024/02/23 07:21:33;;;;;;;3.30;3.00;;;22.90;45.90;;;;;;5071444;28;20041;-41
2024/02/23 07:24:00;;;;;;;3.55;3.25;;;22.90;45.90;;;;;;5067900;28;20032;-42
2024/02/23 07:26:28;;;;;;;3.30;2.97;;;22.90;45.90;;;;;;5069896;28;20032;-40
2024/02/23 07:28:55;;;;;;;3.25;2.83;;;22.90;46.00;;;;;;5070963;28;20028;-42
2024/02/23 07:31:21;;;;;;;3.38;3.08;;;23.00;46.20;;;;;;5067337;28;20076;-42
2024/02/23 07:33:47;;;;;;;3.58;2.97;;;23.00;46.20;;;;;;5072801;28;20036;-42
2024/02/23 07:36:16;;;;;;;3.65;3.28;;;23.00;46.10;;;;;;5068370;28;20028;-41
2024/02/23 07:38:45;;;;;;;3.28;2.97;;;23.00;46.10;;;;;;5067475;28;20156;-42
2024/02/23 07:41:13;;;;;;;3.60;2.97;;;23.00;46.10;;;;;;5067099;28;20052;-44
2024/02/23 07:43:39;;;;;;;;;;;23.00;46.10;;;;;;5073549;28;20485;-42
2024/02/23 07:46:08;;;;;;;3.42;2.88;;;22.90;46.10;;;;;;5070621;28;19913;-41
2024/02/23 07:48:37;;;;;;;3.13;2.90;;;22.90;46.10;;;;;;5051783;28;20025;-43
2024/02/23 07:51:04;;;;;;;3.38;3.08;;;22.90;46.10;;;;;;5072767;28;20096;-42
2024/02/23 07:53:31;;;;;;;;;;;22.90;46.10;;;;;;5070634;28;20025;-42
2024/02/23 07:55:59;;;;;;;3.22;2.83;;;22.90;46.10;;;;;;5076340;28;19927;-42
2024/02/23 07:58:28;;;;;;;2.78;2.58;;;22.90;46.10;;;;;;5044754;28;20041;-42
2024/02/23 08:00:54;;;;;;;3.33;3.03;;;22.90;46.10;;;;;;5067727;28;20036;-42
2024/02/23 08:03:21;;;;;;;3.45;3.15;;;22.90;46.20;;;;;;5070264;28;20024;-41
2024/02/23 08:05:47;;;;;;;3.10;2.83;;;22.90;46.30;;;;;;5063564;28;20065;-47
2024/02/23 08:08:13;;;;;;;3.17;2.53;;;22.90;46.30;;;;;;5045269;28;20030;-41
2024/02/23 08:10:39;;;;;;;3.30;2.90;;;22.90;46.30;;;;;;5051058;28;20540;-44
2024/02/23 08:13:05;;;;;;;3.40;3.00;;;22.90;46.30;;;;;;5044040;28;20060;-40
2024/02/23 08:15:31;;;;;;;2.88;2.67;;;22.90;46.30;;;;;;5054559;28;20147;-42
2024/02/23 08:17:58;;;;;;;3.40;3.10;;;22.90;46.30;;;;;;5050472;28;20066;-41
2024/02/23 08:20:24;;;;;;;3.65;2.95;;;22.90;46.30;;;;;;5048139;28;20021;-41
2024/02/23 08:22:53;;;;;;;3.65;3.17;;;22.90;46.30;;;;;;5044796;28;20051;-40
2024/02/23 08:25:19;;;;;;;4.50;3.20;;;22.90;46.30;;;;;;5044295;28;20037;-43
2024/02/23 08:27:45;;;;;;;3.15;2.85;;;22.90;46.40;;;;;;5051829;28;20143;-42
2024/02/23 08:30:13;;;;;;;3.20;2.90;;;22.90;46.30;;;;;;5047686;28;20116;-40
2024/02/23 08:32:39;;;;;;;3.80;3.03;;;22.90;46.40;;;;;;5031203;28;20024;-42
2024/02/23 08:35:06;;;;;;;3.80;3.00;;;22.90;46.30;;;;;;5050896;28;20036;-41
2024/02/23 08:37:32;;;;;;;3.35;3.03;;;22.90;46.40;;;;;;5049216;28;20112;-43
2024/02/23 08:39:59;;;;;;;3.30;3.00;;;22.90;46.60;;;;;;5046732;28;20047;-43
2024/02/23 08:42:25;;;;;;;2.70;2.50;;;22.90;46.60;;;;;;5048518;28;20034;-43
2024/02/23 08:44:54;;;;;;;3.20;2.90;;;22.90;46.70;;;;;;5053117;28;20485;-42
2024/02/23 08:47:20;;;;;;;2.88;2.65;;;22.90;46.60;;;;;;5055241;28;20105;-41
2024/02/23 08:49:46;;;;;;;3.20;2.90;;;22.90;46.60;;;;;;5060932;28;20033;-43
2024/02/23 08:52:12;;;;;;;3.40;2.78;;;22.90;46.60;;;;;;5059984;28;20060;-43
2024/02/23 08:54:39;;;;;;;3.00;2.70;;;22.90;46.60;;;;;;5054251;28;20059;-41
2024/02/23 08:57:05;;;;;;;3.83;3.03;;;22.90;46.60;;;;;;5055744;28;20033;-42
2024/02/23 08:59:31;;;;;;;3.25;2.70;;;22.90;46.50;;;;;;5059381;28;20557;-41
2024/02/23 09:01:58;;;;;;;2.63;2.40;;;22.90;46.50;;;;;;5061913;28;20036;-42
2024/02/23 09:04:24;;;;;;;3.15;2.85;;;22.90;46.60;;;;;;5062389;28;20040;-42
2024/02/23 09:06:51;;;;;;;3.20;2.90;;;22.90;46.70;;;;;;5075036;28;20049;-42
2024/02/23 09:09:17;;;;;;;3.53;3.05;;;22.90;46.80;;;;;;5081792;28;20043;-42
2024/02/23 09:11:43;;;;;;;3.70;3.03;;;22.90;46.80;;;;;;5081638;28;20037;-42
2024/02/23 09:14:09;;;;;;;2.92;2.72;;;22.90;46.80;;;;;;5082455;28;20032;-43
2024/02/23 09:16:35;;;;;;;3.17;2.80;;;22.90;46.70;;;;;;5077022;28;20082;-43
2024/02/23 09:19:01;;;;;;;2.80;2.50;;;22.90;46.70;;;;;;5082438;28;20032;-42
2024/02/23 09:21:28;;;;;;;3.10;2.80;;;22.90;46.70;;;;;;5081614;28;20033;-40
2024/02/23 09:23:54;;;;;;;2.92;2.67;;;22.90;46.70;;;;;;5081017;28;20382;-41
2024/02/23 09:26:20;;;;;;;2.97;2.67;;;22.90;46.60;;;;;;5081503;28;20032;-42
2024/02/23 09:28:46;;;;;;;4.95;3.08;;;22.90;46.70;;;;;;5079902;28;20037;-42
2024/02/23 09:31:12;;;;;;;3.38;3.08;;;22.90;46.80;;;;;;5081836;28;20120;-41
2024/02/23 09:33:38;;;;;;;2.85;2.65;;;22.90;46.90;;;;;;5081260;28;20036;-41
2024/02/23 09:36:05;;;;;;;3.63;2.75;;;22.90;46.90;;;;;;5077130;28;20593;-44
2024/02/23 09:38:32;;;;;;;3.15;2.78;;;22.90;46.90;;;;;;5081591;28;20070;-42
2024/02/23 09:41:00;;;;;;;3.10;2.78;;;22.90;46.90;;;;;;5081840;28;20525;-43
2024/02/23 09:43:28;;;;;;;3.58;2.75;;;22.90;46.90;;;;;;5081580;28;20055;-42
2024/02/23 09:45:54;;;;;;;3.28;2.97;;;22.90;46.90;;;;;;5062357;28;20028;-45
2024/02/23 09:48:21;;;;;;;4.53;3.20;;;22.90;46.80;;;;;;5077574;28;20028;-42
2024/02/23 09:50:48;;;;;;;3.75;2.90;;;22.90;46.80;;;;;;5080945;28;20029;-42
2024/02/23 09:53:35;;;;;;;3.33;2.70;;;22.90;46.80;;;;;;5015778;28;20037;-42
2024/02/23 09:56:01;;;;;;;3.78;3.03;;;22.90;46.90;;;;;;4983030;28;20046;-41
2024/02/23 09:58:29;;;;;;;3.70;2.83;;;22.90;47.00;;;;;;5014428;28;20042;-42
2024/02/23 10:00:57;;;;;;;2.97;2.67;;;22.90;47.60;;;;;;5019304;28;20041;-42
2024/02/23 10:03:25;;;;;;;3.10;2.80;;;22.90;47.10;;;;;;5019146;28;20037;-42
2024/02/23 10:05:51;;;;;;;3.28;2.97;;;22.90;47.10;;;;;;5019073;28;20037;-41
2024/02/23 10:08:18;;;;;;;2.92;2.60;;;22.90;47.00;;;;;;5019222;28;20030;-40
2024/02/23 10:10:46;;;;;;;3.53;2.88;;;22.90;47.10;;;;;;5018805;28;20056;-39
2024/02/23 10:13:12;;;;;;;2.90;2.45;;;22.90;47.00;;;;;;5023566;28;20124;-41
2024/02/23 10:15:38;;;;;;;3.28;2.97;;;22.90;47.00;;;;;;5006159;28;20129;-40
2024/02/23 10:18:05;;;;;;;3.45;3.15;;;22.90;46.90;;;;;;5018242;28;20077;-41
2024/02/23 10:20:31;;;;;;;3.08;2.72;;;22.80;46.90;;;;;;5022811;28;20499;-41
2024/02/23 10:22:57;;;;;;;3.33;2.80;;;22.90;47.10;;;;;;5022268;28;20097;-43
2024/02/23 10:25:23;;;;;;;3.10;2.80;;;22.90;47.10;;;;;;5020417;28;20038;-43
2024/02/23 10:27:50;;;;;;;3.97;2.75;;;22.90;47.20;;;;;;5016734;28;20038;-43
2024/02/23 10:30:16;;;;;;;3.55;3.00;;;22.90;47.10;;;;;;5034534;28;20063;-42
2024/02/23 10:32:42;;;;;;;2.90;2.65;;;22.90;47.20;;;;;;5062408;28;20032;-43
2024/02/23 10:35:11;;;;;;;3.03;2.70;;;22.90;47.20;;;;;;5065456;28;20382;-42
2024/02/23 10:37:38;;;;;;;3.67;2.83;;;22.90;47.20;;;;;;5063475;28;20417;-42
2024/02/23 10:40:04;;;;;;;2.80;2.60;;;22.90;47.20;;;;;;5062992;28;20033;-43
2024/02/23 10:42:33;;;;;;;3.13;2.83;;;22.90;47.20;;;;;;5046878;28;20037;-42
2024/02/23 10:45:01;;;;;;;3.15;2.85;;;22.90;47.20;;;;;;5064423;28;20041;-42
2024/02/23 10:47:29;;;;;;;3.10;2.53;;;22.80;47.10;;;;;;5060486;28;20054;-42
2024/02/23 10:49:55;;;;;;;3.13;2.55;;;22.80;47.20;;;;;;5063423;28;20059;-42
2024/02/23 10:52:22;;;;;;;3.17;2.88;;;22.80;47.30;;;;;;5065159;28;20676;-42
2024/02/23 10:54:48;;;;;;;3.80;2.90;;;22.90;47.30;;;;;;5057336;28;20040;-43
2024/02/23 10:57:14;;;;;;;3.55;2.60;;;22.90;47.40;;;;;;5064562;28;20025;-43
2024/02/23 10:59:40;;;;;;;2.95;2.65;;;22.90;47.40;;;;;;5061824;28;20036;-41
2024/02/23 11:02:06;;;;;;;2.67;2.30;;;22.90;47.40;;;;;;5065100;28;20048;-43
2024/02/23 11:04:32;;;;;;;3.20;2.67;;;22.90;47.40;;;;;;5054690;28;20025;-42
2024/02/23 11:06:58;;;;;;;3.10;2.55;;;22.90;47.40;;;;;;5063886;28;20049;-42
2024/02/23 11:09:25;;;;;;;2.70;2.40;;;22.90;47.40;;;;;;5064455;28;20040;-42
2024/02/23 11:11:55;;;;;;;2.87;2.57;;;22.90;47.40;;;;;;5064209;28;20044;-42
2024/02/23 11:14:35;;;;;;;2.70;2.22;;;22.80;47.40;;;;;;5064626;28;20058;-44
2024/02/23 11:17:01;;;;;;;2.40;2.00;;;22.80;47.50;;;;;;5041781;28;20033;-42
2024/02/23 11:19:37;;;;;;;2.50;2.10;;;22.90;47.50;;;;;;5064060;28;20409;-45
2024/02/23 11:22:04;;;;;;;3.05;2.20;;;22.80;47.50;;;;;;5041981;28;20036;-43
2024/02/23 11:24:30;;;;;;;2.25;2.05;;;22.90;47.50;;;;;;5063858;28;20044;-42
2024/02/23 11:27:07;;;;;;;2.42;1.92;;;22.90;47.50;;;;;;5060708;28;20060;-43
2024/02/23 11:29:34;;;;;;;2.45;2.25;;;22.80;47.50;;;;;;5056639;28;20034;-41
2024/02/23 11:32:03;;;;;;;2.53;2.10;;;22.80;47.50;;;;;;5063925;28;20060;-43
2024/02/23 11:34:30;;;;;;;1.83;1.70;;;22.80;47.50;;;;;;5063621;28;20041;-42
2024/02/23 11:36:57;;;;;;;2.15;1.85;;;22.80;47.50;;;;;;5062968;28;20750;-43
2024/02/23 11:39:23;;;;;;;1.70;1.60;;;22.80;47.50;;;;;;5038990;28;20040;-43
2024/02/23 11:41:50;;;;;;;3.03;1.77;;;22.80;47.60;;;;;;5061643;28;20037;-43
2024/02/23 11:44:19;;;;;;;2.65;1.67;;;22.80;47.60;;;;;;5043412;28;20041;-43
2024/02/23 11:46:45;;;;;;;2.63;1.90;;;22.80;47.60;;;;;;5061405;28;20059;-43
2024/02/23 11:49:11;;;;;;;2.03;1.83;;;22.80;47.60;;;;;;5044007;28;20089;-43
2024/02/23 11:51:37;;;;;;;2.20;1.77;;;22.80;47.60;;;;;;5060470;28;20040;-41
2024/02/23 11:54:03;;;;;;;2.65;1.70;;;22.80;47.60;;;;;;5059824;28;20025;-42
2024/02/23 11:56:30;;;;;;;2.90;1.80;;;22.80;47.60;;;;;;5061812;28;20494;-42
2024/02/23 11:58:56;;;;;;;1.67;1.50;;;22.80;47.60;;;;;;5060949;28;20688;-42
2024/02/23 12:01:22;;;;;;;1.65;1.42;;;22.80;47.70;;;;;;5040818;28;20036;-41
2024/02/23 12:03:48;;;;;;;2.27;1.57;;;22.80;47.70;;;;;;5061522;28;20040;-42
2024/02/23 12:06:18;;;;;;;1.65;1.30;;;22.80;47.70;;;;;;5036808;28;20399;-41
2024/02/23 12:08:45;;;;;;;2.13;1.65;;;22.80;47.70;;;;;;5043734;28;20656;-42
2024/02/23 12:11:13;;;;;;;1.48;1.38;;;22.80;47.70;;;;;;5042451;28;20418;-41
2024/02/23 12:13:39;;;;;;;1.55;1.40;;;22.80;47.70;;;;;;5045354;28;20033;-41
2024/02/23 12:16:07;;;;;;;1.70;1.60;;;22.80;47.70;;;;;;5042763;28;20036;-42
2024/02/23 12:18:34;;;;;;;1.67;1.40;;;22.80;47.60;;;;;;5056950;28;20037;-42
2024/02/23 12:21:02;;;;;;;1.55;1.40;;;22.80;47.60;;;;;;5052771;28;20040;-42
2024/02/23 12:23:46;;;;;;;1.45;1.30;;;22.80;47.70;;;;;;5060185;28;20040;-44
2024/02/23 12:26:17;;;;;;;1.65;1.30;;;22.80;47.70;;;;;;5040818;28;20048;-43
2024/02/23 12:28:44;;;;;;;1.30;1.20;;;22.80;47.80;;;;;;5059386;28;20059;-42
2024/02/23 12:31:10;;;;;;;1.55;1.13;;;22.80;47.80;;;;;;5051771;28;20028;-42
2024/02/23 12:33:39;;;;;;;1.90;1.30;;;22.80;47.80;;;;;;5057534;28;20076;-41
2024/02/23 12:36:06;;;;;;;1.40;1.08;;;22.80;47.90;;;;;;5059788;28;20040;-42
2024/02/23 12:38:32;;;;;;;1.33;1.15;;;22.80;47.90;;;;;;5059252;28;20110;-41
2024/02/23 12:40:59;;;;;;;1.92;1.30;;;22.80;47.80;;;;;;5048754;28;20033;-41